Shawanese, Pennsylvania
Current Conditions -  °F | °C
As of 12:38 PM on Thursday 23 Oct 2014 (Local Time) from KAVP Reporting Station
Haze Haze  
Wind Chill: 42°   Ceiling: 1500
Heat Index: 46°   Visibility: 6mi
Dew Point: 42°   Wind: 7mph
Humidity: 86%   Direction: NA
Pressure: 29.85"   Gusts: NA
Location:  41.35°N, 76.03°W
Report Text: KAVP 231638Z AUTO VRB06KT 6SM BR OVC015 08/06 A2985 RMK AO2 RAB15E36 P0000 T00780056
Loading
Personal Weather Stations






























Interactive Weather Map
Tropical Storm Tracking
New forecast layout! Learn more

10-Day Weather Forecast

Advertisements
Track Severe Weather on mobile